Time;durP1;ratioP1;P1;durP2;ratioP2;P2;SDS_P1;SDS_P2;PMS_P1;PMS_P2;Temp;Humidity;BMP_temperature;BMP_pressure;BME280_temperature;BME280_humidity;BME280_pressure;Samples;Min_cycle;Max_cycle;Signal;HPM_P1;HPM_P2
2021/07/10 00:00:16;;;;;;;5.47;4.97;;;;;;;15.17;85.09;100905.38;4882612;28;97832;-69
2021/07/10 00:02:42;;;;;;;6.20;4.82;;;;;;;15.24;84.76;100913.16;4881216;28;98493;-65
2021/07/10 00:05:13;;;;;;;5.68;4.45;;;;;;;15.24;84.60;100907.72;4883326;28;99277;-65
2021/07/10 00:07:39;;;;;;;6.32;4.55;;;;;;;15.16;84.79;100902.91;4882453;28;100381;-68
2021/07/10 00:10:12;;;;;;;5.72;4.82;;;;;;;15.19;84.33;100900.44;4886575;28;98079;-68
2021/07/10 00:12:38;;;;;;;5.63;4.50;;;;;;;15.17;84.74;100896.41;4883657;28;106257;-69
2021/07/10 00:15:07;;;;;;;8.18;5.13;;;;;;;15.26;84.86;100896.59;4884199;28;118850;-65
2021/07/10 00:17:34;;;;;;;7.50;5.07;;;;;;;15.25;84.95;100892.22;4881461;28;98215;-68
2021/07/10 00:20:00;;;;;;;7.72;4.57;;;;;;;15.24;85.14;100905.00;4882058;28;100101;-65
2021/07/10 00:22:26;;;;;;;5.45;4.93;;;;;;;15.15;84.95;100912.16;4881010;28;117938;-69
2021/07/10 00:24:52;;;;;;;6.07;4.68;;;;;;;15.05;85.35;100910.38;4882079;28;127905;-69
2021/07/10 00:27:18;;;;;;;5.72;5.07;;;;;;;15.17;85.20;100907.28;4882431;28;98317;-65
2021/07/10 00:29:44;;;;;;;8.43;4.22;;;;;;;15.25;84.97;100908.53;4884078;28;127002;-65
2021/07/10 00:32:11;;;;;;;4.82;4.30;;;;;;;15.28;85.16;100903.34;4881599;28;110223;-65
2021/07/10 00:34:37;;;;;;;6.47;4.53;;;;;;;15.28;84.92;100903.34;4881754;28;98573;-65
2021/07/10 00:37:03;;;;;;;5.07;4.40;;;;;;;15.29;84.63;100901.41;4880666;28;114824;-65
2021/07/10 00:39:29;;;;;;;5.00;4.05;;;;;;;15.29;85.08;100901.41;4881708;28;127582;-69
2021/07/10 00:41:55;;;;;;;5.55;3.72;;;;;;;15.12;84.75;100894.53;4881577;28;117874;-66
2021/07/10 00:44:22;;;;;;;5.00;4.13;;;;;;;15.34;84.62;100909.53;4884210;28;128040;-69
2021/07/10 00:46:48;;;;;;;4.57;4.13;;;;;;;15.33;84.73;100900.59;4866140;28;98204;-69
2021/07/10 00:49:14;;;;;;;5.72;4.35;;;;;;;15.26;84.47;100899.31;4865437;28;99091;-65
2021/07/10 00:51:40;;;;;;;5.55;4.28;;;;;;;15.27;84.94;100904.44;4863230;28;118314;-65
2021/07/10 00:54:06;;;;;;;6.18;4.00;;;;;;;15.29;84.95;100913.13;4864262;28;118112;-65
2021/07/10 00:56:32;;;;;;;5.90;4.60;;;;;;;15.32;84.38;100898.94;4881390;28;118823;-65
2021/07/10 00:58:58;;;;;;;7.40;4.47;;;;;;;15.27;84.92;100906.34;4882940;28;128231;-65
2021/07/10 01:01:24;;;;;;;6.15;4.13;;;;;;;15.35;84.85;100908.44;4867030;28;104474;-65
2021/07/10 01:03:50;;;;;;;7.20;5.05;;;;;;;15.14;85.42;100905.13;4866441;28;116399;-65
2021/07/10 01:06:16;;;;;;;6.70;4.93;;;;;;;15.27;84.93;100901.72;4881830;28;98531;-69
2021/07/10 01:08:45;;;;;;;6.13;4.72;;;;;;;15.34;84.59;100904.09;4885664;28;98315;-69
2021/07/10 01:11:11;;;;;;;5.85;4.63;;;;;;;15.37;84.90;100903.53;4870126;28;98237;-65
2021/07/10 01:13:37;;;;;;;5.18;4.68;;;;;;;15.17;85.46;100901.84;4865846;28;103710;-68
2021/07/10 01:16:05;;;;;;;4.97;4.47;;;;;;;15.27;85.10;100904.44;4885466;28;105511;-65
2021/07/10 01:18:31;;;;;;;8.13;5.45;;;;;;;15.39;84.88;100904.84;4866272;28;99214;-69
2021/07/10 01:20:57;;;;;;;6.63;4.80;;;;;;;15.40;85.02;100890.16;4870585;28;116516;-69
2021/07/10 01:23:24;;;;;;;5.50;4.60;;;;;;;15.41;85.05;100897.22;4869082;28;98378;-66
2021/07/10 01:25:51;;;;;;;5.18;4.60;;;;;;;15.22;85.23;100907.22;4887045;28;97890;-65
2021/07/10 01:28:17;;;;;;;7.25;5.30;;;;;;;15.35;84.79;100903.81;4884348;28;116939;-69
2021/07/10 01:30:43;;;;;;;7.95;5.05;;;;;;;15.50;84.66;100902.03;4884312;28;106856;-69
2021/07/10 01:33:10;;;;;;;6.78;5.47;;;;;;;15.51;84.62;100899.00;4886825;28;98979;-65
2021/07/10 01:35:36;;;;;;;6.20;5.63;;;;;;;15.58;84.46;100899.47;4863117;28;98364;-69
2021/07/10 01:38:07;;;;;;;5.88;5.25;;;;;;;15.59;84.02;100901.09;4867590;28;128058;-65
2021/07/10 01:40:33;;;;;;;7.45;5.63;;;;;;;15.60;84.50;100899.16;4885868;28;97755;-65
2021/07/10 01:43:04;;;;;;;7.07;6.03;;;;;;;15.58;83.63;100901.38;4882363;28;128087;-69
2021/07/10 01:45:37;;;;;;;6.88;5.90;;;;;;;15.57;84.50;100892.44;4886650;28;98297;-69
2021/07/10 01:48:05;;;;;;;6.57;5.85;;;;;;;15.55;83.89;100893.81;4886716;28;97898;-65
2021/07/10 01:50:31;;;;;;;7.13;6.47;;;;;;;15.65;84.43;100901.88;4869830;28;98141;-69
2021/07/10 01:52:58;;;;;;;6.78;5.97;;;;;;;15.67;84.34;100899.66;4866958;28;98947;-70
2021/07/10 01:55:24;;;;;;;7.22;6.53;;;;;;;15.51;84.45;100898.19;4885857;28;98587;-69
2021/07/10 01:57:52;;;;;;;7.53;6.57;;;;;;;15.49;84.79;100894.97;4868631;28;98784;-69
2021/07/10 02:00:21;;;;;;;8.15;6.68;;;;;;;15.55;84.81;100888.38;4887525;28;98231;-65
2021/07/10 02:02:48;;;;;;;8.63;6.72;;;;;;;15.52;84.94;100892.47;4881542;28;115182;-69
2021/07/10 02:05:16;;;;;;;6.32;5.72;;;;;;;15.60;84.55;100889.13;4883483;28;128835;-69
2021/07/10 02:07:42;;;;;;;7.00;6.38;;;;;;;15.68;84.39;100896.69;4882915;28;115558;-70
2021/07/10 02:10:10;;;;;;;7.53;6.78;;;;;;;15.47;84.91;100893.34;4870250;28;117459;-65
2021/07/10 02:12:37;;;;;;;10.25;7.18;;;;;;;15.60;84.41;100891.03;4885676;28;101287;-65
2021/07/10 02:15:07;;;;;;;7.72;6.85;;;;;;;15.58;84.16;100899.47;4884307;28;117244;-69
2021/07/10 02:17:33;;;;;;;7.85;7.05;;;;;;;15.65;84.70;100907.31;4883619;28;98080;-65
2021/07/10 02:19:59;;;;;;;8.75;7.85;;;;;;;15.49;84.28;100903.13;4883023;28;107806;-65
2021/07/10 02:22:25;;;;;;;9.98;7.32;;;;;;;15.50;84.83;100904.75;4884183;28;128373;-65
2021/07/10 02:24:51;;;;;;;8.27;7.20;;;;;;;15.60;84.49;100908.16;4884050;28;128305;-69
2021/07/10 02:27:19;;;;;;;10.25;7.18;;;;;;;15.47;84.93;100908.84;4882703;28;98472;-69
2021/07/10 02:29:45;;;;;;;7.85;7.05;;;;;;;15.46;85.07;100905.31;4884069;28;97857;-65
2021/07/10 02:32:11;;;;;;;10.60;7.80;;;;;;;15.36;85.72;100904.63;4880671;28;118686;-65
2021/07/10 02:34:37;;;;;;;10.85;8.07;;;;;;;15.30;85.35;100909.31;4884326;28;128129;-69
2021/07/10 02:37:04;;;;;;;8.77;7.97;;;;;;;15.18;86.15;100903.47;4884604;28;97907;-65
2021/07/10 02:39:30;;;;;;;9.27;8.07;;;;;;;15.23;85.96;100911.53;4886405;28;106282;-69
2021/07/10 02:41:56;;;;;;;9.77;8.40;;;;;;;15.36;86.17;100912.75;4884323;28;127947;-69
2021/07/10 02:44:22;;;;;;;12.25;8.25;;;;;;;15.21;86.61;100920.00;4884514;28;109830;-65
2021/07/10 02:46:48;;;;;;;9.45;8.48;;;;;;;15.32;85.73;100914.44;4898949;28;127554;-65
2021/07/10 02:49:14;;;;;;;10.32;7.43;;;;;;;15.19;85.79;100907.78;4883207;28;97937;-65
2021/07/10 02:51:40;;;;;;;11.13;9.23;;;;;;;15.11;86.46;100906.50;4863971;28;104025;-69
2021/07/10 02:54:06;;;;;;;10.68;8.20;;;;;;;15.17;86.60;100904.56;4872633;28;98437;-65
2021/07/10 02:56:32;;;;;;;10.27;8.73;;;;;;;15.14;86.35;100899.69;4881510;28;127319;-69
2021/07/10 02:58:58;;;;;;;11.35;9.48;;;;;;;15.05;86.19;100901.41;4867116;28;116841;-65
2021/07/10 03:01:25;;;;;;;11.00;8.65;;;;;;;15.17;86.74;100910.00;4885254;28;126950;-69
2021/07/10 03:03:51;;;;;;;11.90;8.15;;;;;;;15.33;85.52;100910.66;4883043;28;98822;-65
2021/07/10 03:06:17;;;;;;;10.65;8.35;;;;;;;15.26;85.91;100905.53;4885321;28;99072;-69
2021/07/10 03:08:44;;;;;;;8.65;7.85;;;;;;;15.43;85.51;100905.88;4867580;28;97966;-65
2021/07/10 03:11:12;;;;;;;12.52;8.63;;;;;;;15.19;85.42;100897.72;4866735;28;98403;-70
2021/07/10 03:13:39;;;;;;;9.80;7.82;;;;;;;15.16;85.79;100901.00;4883766;28;98556;-69
2021/07/10 03:16:05;;;;;;;10.20;8.73;;;;;;;15.31;85.37;100900.03;4880910;28;98837;-69
2021/07/10 03:18:31;;;;;;;12.90;8.43;;;;;;;15.31;85.22;100894.63;4884296;28;98058;-65
2021/07/10 03:20:58;;;;;;;9.52;8.52;;;;;;;15.36;85.18;100889.13;4877968;28;98596;-69
2021/07/10 03:23:24;;;;;;;11.82;8.88;;;;;;;15.32;85.25;100892.72;4865513;28;128253;-65
2021/07/10 03:25:50;;;;;;;11.68;8.73;;;;;;;15.40;85.14;100892.88;4882684;28;98288;-65
2021/07/10 03:28:16;;;;;;;9.73;8.23;;;;;;;15.36;84.81;100899.19;4882501;28;116524;-65
2021/07/10 03:30:48;;;;;;;10.32;9.20;;;;;;;15.28;85.73;100897.09;4884628;28;99168;-65
2021/07/10 03:33:14;;;;;;;10.07;8.95;;;;;;;15.36;85.49;100899.19;4884576;28;98361;-65
2021/07/10 03:35:40;;;;;;;10.35;8.85;;;;;;;15.31;85.45;100904.69;4882012;28;97858;-65
2021/07/10 03:38:07;;;;;;;12.48;10.43;;;;;;;15.22;84.92;100904.50;4865698;28;97889;-65
2021/07/10 03:40:33;;;;;;;11.95;9.85;;;;;;;15.13;86.06;100895.34;4867019;28;126812;-65
2021/07/10 03:42:59;;;;;;;11.45;9.75;;;;;;;15.20;85.22;100899.34;4880591;28;128160;-69
2021/07/10 03:45:31;;;;;;;14.38;10.70;;;;;;;15.30;85.52;100903.06;4885869;28;98469;-69
2021/07/10 03:47:57;;;;;;;11.30;9.77;;;;;;;15.36;85.09;100899.19;4884919;28;97978;-69
2021/07/10 03:50:23;;;;;;;11.75;10.55;;;;;;;15.08;85.79;100896.22;4850417;28;127233;-65
2021/07/10 03:52:49;;;;;;;11.57;10.48;;;;;;;15.38;85.38;100908.66;4866282;28;127872;-69
2021/07/10 03:55:15;;;;;;;12.27;10.85;;;;;;;15.37;84.79;100903.53;4867115;28;98092;-65
2021/07/10 03:57:42;;;;;;;13.50;10.57;;;;;;;15.49;84.66;100911.28;4885990;28;100635;-65
2021/07/10 04:00:15;;;;;;;12.73;11.35;;;;;;;15.26;84.80;100902.84;4886529;28;98482;-70
2021/07/10 04:02:41;;;;;;;13.50;10.93;;;;;;;15.43;84.49;100910.50;4882046;28;98595;-69
2021/07/10 04:05:10;;;;;;;14.05;10.95;;;;;;;15.51;84.77;100909.06;4866069;28;118020;-69
2021/07/10 04:07:37;;;;;;;12.48;11.18;;;;;;;15.40;84.51;100911.88;4854551;28;98121;-65
2021/07/10 04:10:05;;;;;;;12.35;11.13;;;;;;;15.45;84.15;100917.28;4885205;28;98324;-65
2021/07/10 04:12:31;;;;;;;14.38;11.20;;;;;;;15.43;84.62;100916.75;4884085;28;98446;-66
2021/07/10 04:15:00;;;;;;;15.75;12.23;;;;;;;15.53;84.26;100912.31;4866818;28;127544;-65
2021/07/10 04:17:30;;;;;;;12.45;11.18;;;;;;;15.66;83.98;100915.16;4853828;28;98721;-65
2021/07/10 04:19:57;;;;;;;15.65;11.75;;;;;;;15.76;83.81;100916.97;4885113;28;98100;-65
2021/07/10 04:22:23;;;;;;;13.75;11.13;;;;;;;15.88;83.40;100922.78;4882514;28;98875;-65
2021/07/10 04:24:50;;;;;;;15.15;11.52;;;;;;;15.91;82.97;100926.81;4883372;28;98143;-65
2021/07/10 04:27:16;;;;;;;12.82;11.13;;;;;;;16.00;83.29;100921.56;4884432;28;98158;-70
2021/07/10 04:29:44;;;;;;;11.45;10.25;;;;;;;16.07;82.81;100925.53;4882748;28;98983;-65
2021/07/10 04:32:13;;;;;;;11.95;10.60;;;;;;;16.17;82.95;100930.81;4884301;28;99288;-69
2021/07/10 04:34:39;;;;;;;13.10;10.60;;;;;;;16.04;83.35;100934.25;4883700;28;98135;-69
2021/07/10 04:37:05;;;;;;;13.82;11.25;;;;;;;16.04;83.14;100936.97;4881765;28;115105;-69
2021/07/10 04:39:34;;;;;;;12.25;10.95;;;;;;;16.11;83.21;100932.00;4885750;28;99427;-69
2021/07/10 04:42:00;;;;;;;15.15;11.15;;;;;;;16.28;82.63;100944.28;4882754;28;118394;-65
2021/07/10 04:44:27;;;;;;;11.80;9.85;;;;;;;16.33;82.31;100946.91;4881143;28;99516;-65
2021/07/10 04:46:53;;;;;;;11.30;9.70;;;;;;;16.25;81.06;100953.00;4881470;28;97994;-65
2021/07/10 04:49:19;;;;;;;11.52;9.73;;;;;;;16.52;81.61;100947.72;4883490;28;128469;-65
2021/07/10 04:51:45;;;;;;;12.18;9.90;;;;;;;16.68;81.27;100949.09;4883765;28;98340;-69
2021/07/10 04:54:11;;;;;;;12.20;8.70;;;;;;;17.01;79.95;100957.28;4882483;28;98276;-69
2021/07/10 04:56:38;;;;;;;10.05;8.02;;;;;;;16.88;79.82;100945.25;4883057;28;97808;-69
2021/07/10 04:59:04;;;;;;;12.85;8.23;;;;;;;17.04;79.51;100947.72;4885523;28;100071;-66
2021/07/10 05:01:31;;;;;;;11.93;8.60;;;;;;;17.02;80.08;100952.69;4880524;28;127407;-69
2021/07/10 05:03:57;;;;;;;9.90;8.30;;;;;;;17.21;78.03;100958.84;4864703;28;97816;-65
2021/07/10 05:06:23;;;;;;;12.00;8.35;;;;;;;17.16;77.85;100957.03;4881368;28;98264;-70
2021/07/10 05:08:49;;;;;;;10.25;7.95;;;;;;;17.27;77.94;100956.84;4883759;28;99100;-69
2021/07/10 05:11:15;;;;;;;9.05;7.20;;;;;;;16.93;79.07;100949.81;4880154;28;103137;-66
2021/07/10 05:13:42;;;;;;;11.13;8.18;;;;;;;16.99;78.25;100956.78;4882068;28;127483;-65
2021/07/10 05:16:08;;;;;;;15.05;8.07;;;;;;;17.10;78.20;100952.00;4881238;28;97879;-69
2021/07/10 05:18:34;;;;;;;8.95;7.07;;;;;;;17.01;78.08;100948.31;4881236;28;128369;-66
2021/07/10 05:21:00;;;;;;;12.07;7.03;;;;;;;17.18;78.63;100959.47;4880340;28;128029;-66
2021/07/10 05:23:26;;;;;;;11.48;7.38;;;;;;;17.35;77.10;100954.25;4880473;28;100558;-69
2021/07/10 05:25:52;;;;;;;8.13;6.63;;;;;;;17.32;77.36;100956.75;4880862;28;117863;-70
2021/07/10 05:28:18;;;;;;;7.75;6.95;;;;;;;17.42;77.34;100954.66;4880124;28;126891;-66
2021/07/10 05:30:47;;;;;;;11.20;6.60;;;;;;;17.99;76.24;100951.63;4879187;28;126925;-66
2021/07/10 05:33:15;;;;;;;8.13;5.93;;;;;;;18.26;74.79;100956.25;4884129;28;98499;-70
2021/07/10 05:35:41;;;;;;;6.65;5.78;;;;;;;18.33;74.20;100953.91;4883550;28;98165;-69
2021/07/10 05:38:07;;;;;;;8.10;6.00;;;;;;;18.33;74.32;100956.63;4881740;28;98529;-70
2021/07/10 05:40:33;;;;;;;8.98;6.15;;;;;;;18.31;74.12;100958.88;4881388;28;117187;-66
2021/07/10 05:42:59;;;;;;;7.50;5.90;;;;;;;17.91;74.59;100969.53;4882975;28;118763;-70
2021/07/10 05:45:25;;;;;;;8.38;5.72;;;;;;;18.07;75.03;100971.94;4879546;28;117396;-66
2021/07/10 05:47:52;;;;;;;6.85;5.82;;;;;;;17.98;74.36;100971.03;4884742;28;128186;-66
2021/07/10 05:50:18;;;;;;;9.48;5.90;;;;;;;17.89;75.11;100969.03;4885278;28;110054;-68
2021/07/10 05:52:44;;;;;;;10.05;5.85;;;;;;;17.85;76.02;100965.31;4885345;28;98064;-71
2021/07/10 05:55:10;;;;;;;7.90;5.88;;;;;;;17.74;76.00;100971.22;4885029;28;97978;-65
2021/07/10 05:57:36;;;;;;;7.90;5.40;;;;;;;17.76;76.03;100967.09;4884681;28;98535;-69
2021/07/10 06:00:06;;;;;;;8.20;5.80;;;;;;;17.43;76.51;100967.16;4886009;28;107309;-69
2021/07/10 06:02:32;;;;;;;8.45;6.10;;;;;;;17.49;76.95;100980.69;4884804;28;98351;-65
2021/07/10 06:04:58;;;;;;;8.07;5.75;;;;;;;17.54;77.30;100975.97;4884441;28;116014;-69
2021/07/10 06:07:24;;;;;;;9.68;5.93;;;;;;;17.51;76.79;100982.00;4882317;28;127019;-66
2021/07/10 06:09:51;;;;;;;9.75;5.72;;;;;;;17.91;75.46;100985.88;4877000;28;126285;-69
2021/07/10 06:12:17;;;;;;;8.00;5.25;;;;;;;18.18;74.79;100981.53;4883297;28;98679;-69
2021/07/10 06:14:43;;;;;;;9.43;4.95;;;;;;;19.03;71.56;100984.50;4886017;28;97783;-69
2021/07/10 06:17:09;;;;;;;6.15;4.20;;;;;;;21.39;62.82;100971.75;4884810;28;128012;-70
2021/07/10 06:19:35;;;;;;;6.95;4.03;;;;;;;20.72;64.01;100986.03;4881997;28;127847;-70
2021/07/10 06:22:05;;;;;;;5.97;4.22;;;;;;;20.16;64.91;100987.72;4868165;28;107478;-69
2021/07/10 06:24:31;;;;;;;7.80;3.80;;;;;;;21.81;62.29;100991.91;4881083;28;104969;-69
2021/07/10 06:26:57;;;;;;;5.88;3.75;;;;;;;21.77;60.13;100999.19;4883468;28;125005;-66
2021/07/10 06:29:24;;;;;;;5.85;3.30;;;;;;;23.15;56.48;101001.28;4882829;28;115471;-70
2021/07/10 06:31:50;;;;;;;6.57;3.58;;;;;;;21.87;58.90;101008.19;4883709;28;98223;-70
2021/07/10 06:34:16;;;;;;;6.88;3.47;;;;;;;20.75;63.44;101008.13;4881709;28;118739;-65
2021/07/10 06:36:42;;;;;;;5.82;3.80;;;;;;;19.68;65.63;101013.97;4856081;28;104149;-70
2021/07/10 06:39:08;;;;;;;6.00;3.67;;;;;;;19.97;65.58;101010.72;4874866;28;111623;-69
2021/07/10 06:41:36;;;;;;;5.68;3.30;;;;;;;21.23;62.19;101000.81;4871036;28;98031;-69
2021/07/10 06:44:03;;;;;;;5.90;3.17;;;;;;;21.84;60.75;101004.13;4870605;28;98001;-69
2021/07/10 06:46:29;;;;;;;6.97;3.00;;;;;;;22.20;57.89;101005.59;4875205;28;105423;-70
2021/07/10 06:48:55;;;;;;;7.10;3.20;;;;;;;22.85;56.19;101004.13;4868663;28;117402;-66
2021/07/10 06:51:21;;;;;;;5.15;2.75;;;;;;;23.03;56.26;100997.38;4871854;28;103749;-66
2021/07/10 06:53:47;;;;;;;7.10;3.13;;;;;;;22.18;57.89;101005.13;4870364;28;106611;-66
2021/07/10 06:56:13;;;;;;;5.13;3.03;;;;;;;22.57;56.22;101005.84;4892458;28;105618;-66
2021/07/10 06:58:39;;;;;;;5.82;3.10;;;;;;;23.44;53.95;101003.06;4863267;28;126924;-66
2021/07/10 07:01:05;;;;;;;5.50;2.63;;;;;;;23.33;55.16;101007.41;4869182;28;126059;-66
2021/07/10 07:03:32;;;;;;;4.60;2.80;;;;;;;23.03;56.05;101010.31;4889685;28;98463;-66
2021/07/10 07:05:58;;;;;;;6.60;2.70;;;;;;;23.33;55.35;101001.91;4870147;28;97832;-69
2021/07/10 07:08:24;;;;;;;3.70;2.90;;;;;;;23.21;54.47;101010.91;4865369;28;117011;-69
2021/07/10 07:10:50;;;;;;;3.45;2.90;;;;;;;24.01;53.36;101004.94;4875237;28;126871;-66
2021/07/10 07:13:16;;;;;;;9.02;2.70;;;;;;;23.56;53.98;101008.59;4862010;28;118216;-69
2021/07/10 07:15:43;;;;;;;5.22;2.38;;;;;;;23.77;54.44;101003.81;4879921;28;127748;-69
2021/07/10 07:18:09;;;;;;;5.30;2.47;;;;;;;23.94;54.27;101004.75;4892583;28;98162;-68
2021/07/10 07:20:35;;;;;;;2.90;2.60;;;;;;;25.12;51.18;100995.28;4873349;28;126629;-69
2021/07/10 07:23:01;;;;;;;3.42;2.42;;;;;;;25.09;51.11;101004.25;4866910;28;118796;-66
2021/07/10 07:25:27;;;;;;;13.65;2.67;;;;;;;25.51;50.62;101005.72;4875387;28;100810;-69
2021/07/10 07:27:53;;;;;;;7.63;3.05;;;;;;;26.01;49.22;101004.19;4867760;28;98367;-68
2021/07/10 07:30:20;;;;;;;4.30;2.65;;;;;;;26.29;48.52;101001.25;4868270;28;126668;-69
2021/07/10 07:32:46;;;;;;;4.15;2.90;;;;;;;25.70;49.28;100992.81;4014827;28;10000635;-66
2021/07/10 07:35:14;;;;;;;7.53;3.08;;;;;;;25.13;50.22;101001.59;4899359;28;98322;-66
2021/07/10 07:37:40;;;;;;;5.43;2.90;;;;;;;25.39;51.13;101007.41;4905284;28;98112;-69
2021/07/10 07:40:08;;;;;;;3.63;2.80;;;;;;;25.00;51.27;101002.78;4907505;28;98213;-66
2021/07/10 07:42:34;;;;;;;5.85;3.30;;;;;;;24.93;49.67;100990.38;4898274;28;99052;-66
2021/07/10 07:45:00;;;;;;;6.70;3.17;;;;;;;25.32;49.95;100987.09;4898044;28;119216;-65
2021/07/10 07:47:26;;;;;;;6.18;3.10;;;;;;;25.87;48.34;100997.19;4896529;28;99343;-66
2021/07/10 07:49:52;;;;;;;8.02;3.63;;;;;;;26.66;47.13;100996.19;4878451;28;127804;-69
2021/07/10 07:52:18;;;;;;;4.25;3.63;;;;;;;26.53;48.03;100992.75;4859965;28;128168;-69
2021/07/10 07:54:44;;;;;;;4.90;3.10;;;;;;;26.59;47.85;101004.31;4878905;28;127273;-69
2021/07/10 07:57:10;;;;;;;5.90;3.45;;;;;;;24.38;52.98;101004.91;4892066;28;116381;-68
2021/07/10 07:59:36;;;;;;;6.07;3.42;;;;;;;24.86;51.95;100995.69;4880090;28;98878;-68
2021/07/10 08:02:03;;;;;;;6.72;4.15;;;;;;;26.87;45.55;100993.81;4897466;28;98510;-66
2021/07/10 08:04:29;;;;;;;5.38;3.70;;;;;;;25.40;48.12;100994.41;4880350;28;98047;-68
2021/07/10 08:06:55;;;;;;;3.63;3.25;;;;;;;26.74;46.22;100988.81;4895617;28;105682;-68
2021/07/10 08:09:21;;;;;;;4.93;3.15;;;;;;;27.66;44.93;100984.19;4897042;28;127745;-68
2021/07/10 08:11:47;;;;;;;6.25;3.50;;;;;;;26.44;46.36;100989.34;4897761;28;98502;-65
2021/07/10 08:14:13;;;;;;;9.43;3.60;;;;;;;27.41;44.34;100983.78;4897833;28;126341;-66
2021/07/10 08:16:39;;;;;;;4.40;4.00;;;;;;;27.04;45.74;100992.59;4898425;28;98218;-65
2021/07/10 08:19:05;;;;;;;14.73;11.38;;;;;;;26.99;45.07;100992.88;4897559;28;128069;-65
2021/07/10 08:21:33;;;;;;;5.03;4.20;;;;;;;26.33;46.21;100993.84;4863069;28;126865;-65
2021/07/10 08:24:00;;;;;;;4.75;3.50;;;;;;;28.83;41.57;100989.78;4897577;28;99079;-65
2021/07/10 08:26:27;;;;;;;6.20;3.70;;;;;;;26.74;44.79;100981.31;4894631;28;99217;-67
2021/07/10 08:28:54;;;;;;;6.03;4.57;;;;;;;25.34;48.00;100982.03;4897949;28;98810;-68
2021/07/10 08:31:20;;;;;;;5.00;4.13;;;;;;;26.15;46.71;100983.22;4896567;28;98821;-65
2021/07/10 08:33:47;;;;;;;8.30;3.88;;;;;;;29.25;39.41;100981.13;4897642;28;97936;-66
2021/07/10 08:36:13;;;;;;;7.13;3.67;;;;;;;26.15;46.65;100987.94;4895753;28;118916;-67
2021/07/10 08:38:39;;;;;;;8.68;5.88;;;;;;;27.33;43.00;100979.28;4897613;28;117752;-67
2021/07/10 08:41:09;;;;;;;9.00;5.50;;;;;;;27.75;44.64;100986.75;4898782;28;98032;-68
2021/07/10 08:43:36;;;;;;;4.88;3.92;;;;;;;25.05;47.41;100988.72;4898379;28;97966;-67
2021/07/10 08:46:04;;;;;;;5.90;4.13;;;;;;;28.01;41.23;100989.50;4898433;28;107336;-68
2021/07/10 08:48:31;;;;;;;4.95;4.05;;;;;;;26.84;42.71;100994.56;4897942;28;98994;-65
2021/07/10 08:50:58;;;;;;;5.00;3.88;;;;;;;25.28;47.90;100994.50;4896948;28;113545;-65
2021/07/10 08:53:24;;;;;;;5.25;4.35;;;;;;;24.25;50.38;100988.41;4897773;28;117523;-64
2021/07/10 08:55:50;;;;;;;6.80;4.53;;;;;;;25.90;46.35;100976.34;4898808;28;116435;-64
2021/07/10 08:58:17;;;;;;;6.13;3.83;;;;;;;28.95;40.42;100985.94;4896072;28;99092;-65
2021/07/10 09:00:44;;;;;;;17.05;4.85;;;;;;;29.21;40.86;100983.09;4895967;28;115500;-67
2021/07/10 09:03:10;;;;;;;15.10;4.60;;;;;;;30.85;35.64;100986.16;4897969;28;99419;-65
2021/07/10 09:05:36;;;;;;;10.63;3.90;;;;;;;31.00;37.43;100986.97;4898273;28;110649;-66
2021/07/10 09:08:27;;;;;;;10.88;3.70;;;;;;;29.69;41.02;100979.53;4896873;28;128736;-65
2021/07/10 09:11:10;;;;;;;15.35;4.80;;;;;;;31.52;35.26;100982.69;4898663;28;99161;-67
2021/07/10 09:13:42;;;;;;;5.65;3.20;;;;;;;32.08;34.77;100983.03;4895237;28;98371;-67
2021/07/10 09:16:16;;;;;;;5.95;3.35;;;;;;;30.88;35.46;100973.44;4898725;28;98009;-67
2021/07/10 09:18:46;;;;;;;11.77;3.40;;;;;;;30.63;35.05;100971.34;4896713;28;115687;-67
2021/07/10 09:21:33;;;;;;;5.20;3.67;;;;;;;28.52;39.68;100969.63;4899950;28;98858;-64
2021/07/10 09:23:59;;;;;;;4.25;3.00;;;;;;;26.94;44.39;100976.56;4901101;28;98464;-64
2021/07/10 09:26:28;;;;;;;5.65;3.38;;;;;;;28.30;41.87;100967.75;4900281;28;98041;-64
2021/07/10 09:29:11;;;;;;;4.40;3.58;;;;;;;28.87;39.86;100962.88;4901512;28;98387;-64
2021/07/10 09:32:19;;;;;;;6.22;3.63;;;;;;;30.03;38.04;100955.97;4900748;28;98740;-64
2021/07/10 09:34:49;;;;;;;4.75;3.47;;;;;;;29.81;37.72;100959.78;4901773;28;97990;-66
2021/07/10 09:37:19;;;;;;;4.18;2.97;;;;;;;30.97;35.24;100957.13;4901244;28;97937;-67
2021/07/10 09:39:55;;;;;;;4.88;3.10;;;;;;;30.37;35.72;100952.97;4901139;28;98666;-67
2021/07/10 09:42:29;;;;;;;4.32;2.97;;;;;;;31.71;34.84;100955.59;4899322;28;98561;-65
2021/07/10 09:44:55;;;;;;;4.82;3.22;;;;;;;31.99;32.69;100955.59;4900807;28;98223;-65
2021/07/10 09:47:30;;;;;;;3.58;3.17;;;;;;;31.67;33.05;100955.59;4900565;28;117429;-66
2021/07/10 09:49:57;;;;;;;4.47;3.50;;;;;;;31.57;32.46;100955.63;4900402;28;98435;-66
2021/07/10 09:52:24;;;;;;;3.72;3.25;;;;;;;32.02;31.35;100956.75;4901037;28;98445;-65
2021/07/10 09:54:54;;;;;;;3.78;3.40;;;;;;;32.19;31.84;100953.13;4898946;28;98229;-66
2021/07/10 09:57:28;;;;;;;5.97;4.32;;;;;;;31.68;32.27;100942.47;4899206;28;97910;-65
2021/07/10 09:59:59;;;;;;;3.55;3.17;;;;;;;31.46;33.16;100941.69;4899471;28;99679;-66
2021/07/10 10:02:26;;;;;;;6.28;3.20;;;;;;;28.97;38.54;100947.53;4900297;28;111867;-66
2021/07/10 10:05:14;;;;;;;4.38;3.38;;;;;;;28.80;37.36;100940.63;4900296;28;97895;-66
2021/07/10 10:07:54;;;;;;;4.72;3.65;;;;;;;31.49;31.92;100946.47;4900559;28;98540;-66
2021/07/10 10:10:24;;;;;;;4.10;3.70;;;;;;;29.75;34.12;100953.81;4898423;28;115188;-66
2021/07/10 10:13:04;;;;;;;3.42;3.13;;;;;;;28.04;39.03;100951.94;4900286;28;97801;-66
2021/07/10 10:15:32;;;;;;;3.90;3.40;;;;;;;26.61;41.75;100944.75;4900386;28;98042;-64
2021/07/10 10:17:58;;;;;;;3.35;3.05;;;;;;;30.01;37.00;100938.88;4882290;28;97997;-65
2021/07/10 10:20:24;;;;;;;3.70;2.72;;;;;;;28.73;38.71;100935.81;4899529;28;127964;-66
2021/07/10 10:22:50;;;;;;;4.03;3.00;;;;;;;29.02;38.62;100930.56;4897646;28;123307;-66
2021/07/10 10:25:16;;;;;;;3.30;3.00;;;;;;;26.86;42.05;100925.88;4897059;28;127672;-65
2021/07/10 10:27:48;;;;;;;3.95;3.22;;;;;;;27.49;40.41;100924.59;4883139;28;98207;-65
2021/07/10 10:30:16;;;;;;;3.50;3.17;;;;;;;28.09;40.64;100924.69;4898627;28;98944;-66
2021/07/10 10:32:44;;;;;;;3.75;2.67;;;;;;;29.38;38.47;100920.56;4900134;28;116087;-67
2021/07/10 10:35:10;;;;;;;3.60;3.13;;;;;;;30.66;34.98;100930.84;4900178;28;98456;-65
2021/07/10 10:37:38;;;;;;;2.90;2.53;;;;;;;30.81;35.14;100929.69;4900180;28;104856;-65
2021/07/10 10:40:15;;;;;;;3.58;2.97;;;;;;;29.91;35.54;100916.56;4900697;28;112720;-66
2021/07/10 10:42:43;;;;;;;5.40;3.20;;;;;;;27.40;40.04;100935.94;4882426;28;108588;-65
2021/07/10 10:45:10;;;;;;;3.22;2.92;;;;;;;27.87;40.14;100926.41;4897788;28;117148;-66
2021/07/10 10:47:42;;;;;;;4.90;3.00;;;;;;;30.64;36.20;100919.31;4897771;28;101389;-67
2021/07/10 10:50:43;;;;;;;3.70;2.97;;;;;;;31.59;34.58;100917.81;4900178;28;97981;-65
2021/07/10 10:53:23;;;;;;;4.50;3.03;;;;;;;30.87;35.04;100925.34;4897056;28;98761;-65
2021/07/10 10:55:49;;;;;;;3.60;3.30;;;;;;;27.94;38.54;100919.34;4897825;28;99404;-66
2021/07/10 10:58:22;;;;;;;4.13;3.30;;;;;;;27.76;40.48;100908.81;4898950;28;117759;-65
2021/07/10 11:00:56;;;;;;;3.30;2.75;;;;;;;28.98;40.22;100907.56;4899076;28;99324;-64
2021/07/10 11:03:22;;;;;;;5.03;3.42;;;;;;;28.73;38.77;100915.56;4898963;28;110266;-65
2021/07/10 11:05:56;;;;;;;3.53;3.00;;;;;;;27.17;41.87;100908.28;4898128;28;128016;-66
2021/07/10 11:08:27;;;;;;;3.83;3.10;;;;;;;26.30;44.30;100901.47;4899530;28;98157;-66
2021/07/10 11:10:56;;;;;;;4.90;2.90;;;;;;;26.74;45.21;100895.63;4899953;28;98420;-66
2021/07/10 11:13:41;;;;;;;4.68;2.72;;;;;;;26.36;45.52;100900.00;4898561;28;98814;-65
2021/07/10 11:16:17;;;;;;;4.28;3.30;;;;;;;26.09;44.25;100904.56;4899180;28;116333;-65
2021/07/10 11:18:57;;;;;;;3.10;2.78;;;;;;;28.75;40.60;100902.16;4881660;28;97959;-66
2021/07/10 11:21:35;;;;;;;4.32;2.97;;;;;;;28.98;39.43;100900.03;4892110;28;97913;-67